• Join FlightAware (Why Join?)
  • Login
  • US Flag 
09:57PM EDT


 

Airport Tracker/Info


-or-


 

Live Flight TrackerFlight Track Log ✈ EGF3994 ✈ 10-Jun-2013 ✈ KORD - KDAY

Flight Track Log - Related Links

Times and Time Zones

All times are in EDT time to prevent confusion due to time zone crossing. See the EGF3994 flight status page for this flight to view local times or setup timezone preferences in your user account.

Time Position Orientation Groundspeed Altitude Reporting Facility
EDT Latitude Longitude Course Direction KTS MPH feet Rate Location/Type
07:14PM 41.9000 -87.8167 90° East 234 269 4,100  Level Chicago TRACON
07:15PM 41.9614 -87.4805 98° East  Level FlightAware Approximate
07:15PM 41.8783 -87.7336 109° East 246 283 5,800  Level Chicago Center
07:16PM 41.9482 -87.3416 95° East  Level FlightAware Approximate
07:16PM 41.8775 -87.6306 91° East 274 315 8,000  Level Chicago Center
07:17PM 41.9383 -87.2023 95° East  Level FlightAware Approximate
07:17PM 41.8769 -87.5206 90° East 292 336 9,800  Level Chicago Center
07:18PM 41.9333 -87.0627 90° East  Level FlightAware Approximate
07:18PM 41.8928 -87.4094 79° East 303 349 11,900  Level Chicago Center
07:19PM 41.9333 -86.9375 90° East  Level FlightAware Approximate
07:19PM 41.9064 -87.2961 81° East 308 354 13,600  Level Chicago Center
07:20PM 41.8939 -87.1736 98° East 333 383 14,900 1,500 Climbing Chicago Center
07:21PM 41.8808 -87.0211 97° East 344 396 16,700 1,620 Climbing Chicago Center
07:22PM 41.8708 -86.8922 96° East 349 402 18,300 1,380 Climbing Chicago Center
07:23PM 41.8600 -86.7622 96° East 354 407 19,600 1,080 Climbing Chicago Center
07:24PM 41.8483 -86.6281 97° East 369 425 20,600 960 Climbing Chicago Center
07:26PM 41.8275 -86.3931 97° East 378 435 22,200 960 Climbing Indianapolis Center
07:26PM 41.8225 -86.3375 97° East 394 453 22,600 540 Climbing Chicago Center
07:27PM 41.8067 -86.1550 97° East 407 468 23,000 180 Climbing Chicago Center
07:28PM 41.7714 -85.9944 106° East 448 516 23,000  Level Chicago Center
07:29PM 41.7231 -85.8328 112° Southeast 464 534 23,000  Level Chicago Center
07:30PM 41.6567 -85.6842 121° Southeast 467 537 23,000 -480 Level Chicago Center
07:31PM 41.5533 -85.5842 144° Southeast 477 549 22,100 -1,020 Descending Chicago Center
07:32PM 41.4142 -85.4903 153° Southeast 478 550 21,000 -540 Descending Chicago Center
07:33PM 41.3017 -85.4094 152° Southeast 468 539 21,000  Level Chicago Center
07:34PM 41.2153 -85.2917 134° Southeast 454 522 21,000 -300 Level Chicago Center
07:35PM 41.1300 -85.1719 133° Southeast 449 517 20,400 -1,020 Descending Chicago Center
07:36PM 41.0447 -85.0547 134° Southeast 445 512 18,900 -1,620 Descending Chicago Center
07:37PM 40.9467 -84.9214 134° Southeast 429 494 17,100 -1,560 Descending Chicago Center
07:38PM 40.8675 -84.8125 134° Southeast 417 480 15,700 -1,020 Descending Chicago Center
07:39PM 40.7878 -84.7083 135° Southeast 409 471 15,000 -360 Descending Chicago Center
07:40PM 40.7106 -84.6031 134° Southeast 403 464 15,000 -360 Level Chicago Center
07:41PM 40.6731 -84.5539 135° Southeast 400 460 14,500 -1,200 Descending Indianapolis Center
07:42PM 40.5814 -84.4325 135° Southeast 399 459 13,300 -1,140 Descending Indianapolis Center
07:43PM 40.4911 -84.3569 148° Southeast 394 453 12,300 -960 Descending Indianapolis Center
07:44PM 40.3872 -84.3131 162° South 382 440 11,300 -960 Descending Indianapolis Center
07:45PM 40.2958 -84.2544 154° Southeast 367 422 10,300 -1,080 Descending Indianapolis Center
07:46PM 40.2267 -84.1856 143° Southeast 315 362 9,200 -1,500 Descending Indianapolis Center
07:47PM 40.1614 -84.1203 143° Southeast 298 343 7,300 -1,320 Descending Indianapolis Center
07:48PM 40.1075 -84.0647 142° Southeast 234 269 6,700 -780 Descending Indianapolis Center
07:49PM 40.0569 -84.0119 141° Southeast 192 221 5,900 -960 Descending Indianapolis Center
07:50PM 40.0167 -84.0175 186° South 175 201 4,900 -1,140 Descending Indianapolis Center